sensor_id;sensor_type;location;lat;lon;timestamp;pressure;altitude;pressure_sealevel;temperature;humidity
60258;BME280;46115;44.484;11.314;2022-07-23T00:03:31;100184.50;;;30.30;34.93
60258;BME280;46115;44.484;11.314;2022-07-23T00:07:34;100174.22;;;30.13;35.13
60258;BME280;46115;44.484;11.314;2022-07-23T00:11:36;100186.16;;;30.11;35.13
60258;BME280;46115;44.484;11.314;2022-07-23T00:15:40;100184.31;;;30.19;34.67
60258;BME280;46115;44.484;11.314;2022-07-23T00:19:42;100183.44;;;30.11;35.04
60258;BME280;46115;44.484;11.314;2022-07-23T00:23:45;100189.09;;;30.10;34.94
60258;BME280;46115;44.484;11.314;2022-07-23T00:27:49;100190.97;;;30.16;35.16
60258;BME280;46115;44.484;11.314;2022-07-23T00:31:53;100185.72;;;30.01;35.01
60258;BME280;46115;44.484;11.314;2022-07-23T00:35:56;100193.06;;;29.94;35.52
60258;BME280;46115;44.484;11.314;2022-07-23T00:39:58;100190.94;;;29.90;35.65
60258;BME280;46115;44.484;11.314;2022-07-23T00:44:14;100176.44;;;29.83;35.47
60258;BME280;46115;44.484;11.314;2022-07-23T00:48:19;100184.44;;;29.84;35.57
60258;BME280;46115;44.484;11.314;2022-07-23T00:52:21;100180.91;;;29.97;35.67
60258;BME280;46115;44.484;11.314;2022-07-23T00:56:24;100179.97;;;29.57;36.21
60258;BME280;46115;44.484;11.314;2022-07-23T01:00:28;100166.59;;;29.62;35.67
60258;BME280;46115;44.484;11.314;2022-07-23T01:04:32;100164.47;;;29.57;35.56
60258;BME280;46115;44.484;11.314;2022-07-23T01:08:35;100162.88;;;29.28;36.53
60258;BME280;46115;44.484;11.314;2022-07-23T01:12:39;100167.50;;;29.28;36.42
60258;BME280;46115;44.484;11.314;2022-07-23T01:16:42;100173.97;;;29.20;36.63
60258;BME280;46115;44.484;11.314;2022-07-23T01:20:47;100161.00;;;29.22;36.62
60258;BME280;46115;44.484;11.314;2022-07-23T01:24:52;100163.63;;;29.09;36.79
60258;BME280;46115;44.484;11.314;2022-07-23T01:28:58;100161.09;;;29.01;37.32
60258;BME280;46115;44.484;11.314;2022-07-23T01:33:01;100155.59;;;28.87;37.28
60258;BME280;46115;44.484;11.314;2022-07-23T01:37:04;100165.66;;;28.59;38.28
60258;BME280;46115;44.484;11.314;2022-07-23T01:41:08;100160.38;;;28.51;38.38
60258;BME280;46115;44.484;11.314;2022-07-23T01:45:10;100158.34;;;28.32;39.03
60258;BME280;46115;44.484;11.314;2022-07-23T01:49:17;100156.53;;;28.17;39.56
60258;BME280;46115;44.484;11.314;2022-07-23T01:53:38;100149.84;;;28.20;39.44
60258;BME280;46115;44.484;11.314;2022-07-23T01:57:42;100157.19;;;27.98;39.82
60258;BME280;46115;44.484;11.314;2022-07-23T02:01:47;100153.50;;;28.27;39.17
60258;BME280;46115;44.484;11.314;2022-07-23T02:05:49;100140.94;;;28.05;39.62
60258;BME280;46115;44.484;11.314;2022-07-23T02:09:52;100153.31;;;27.86;39.78
60258;BME280;46115;44.484;11.314;2022-07-23T02:13:56;100154.25;;;27.57;40.46
60258;BME280;46115;44.484;11.314;2022-07-23T02:17:59;100146.25;;;27.70;39.71
60258;BME280;46115;44.484;11.314;2022-07-23T02:22:01;100168.81;;;27.71;39.69
60258;BME280;46115;44.484;11.314;2022-07-23T02:26:04;100163.44;;;27.56;40.03
60258;BME280;46115;44.484;11.314;2022-07-23T02:30:09;100175.47;;;27.68;39.91
60258;BME280;46115;44.484;11.314;2022-07-23T02:34:11;100185.28;;;27.48;40.44
60258;BME280;46115;44.484;11.314;2022-07-23T02:38:14;100187.00;;;27.70;39.84
60258;BME280;46115;44.484;11.314;2022-07-23T02:42:16;100181.34;;;27.50;40.49
60258;BME280;46115;44.484;11.314;2022-07-23T02:46:21;100191.38;;;27.71;40.00
60258;BME280;46115;44.484;11.314;2022-07-23T02:50:24;100196.16;;;27.69;40.13
60258;BME280;46115;44.484;11.314;2022-07-23T02:54:29;100205.06;;;27.78;40.00
60258;BME280;46115;44.484;11.314;2022-07-23T02:58:31;100212.75;;;27.59;40.18
60258;BME280;46115;44.484;11.314;2022-07-23T03:02:37;100203.56;;;27.60;40.37
60258;BME280;46115;44.484;11.314;2022-07-23T03:06:40;100206.47;;;27.59;40.29
60258;BME280;46115;44.484;11.314;2022-07-23T03:10:42;100216.66;;;27.72;40.03
60258;BME280;46115;44.484;11.314;2022-07-23T03:14:44;100218.53;;;27.71;40.04
60258;BME280;46115;44.484;11.314;2022-07-23T03:18:48;100225.09;;;27.98;39.69
60258;BME280;46115;44.484;11.314;2022-07-23T03:22:51;100225.84;;;27.71;40.35
60258;BME280;46115;44.484;11.314;2022-07-23T03:26:53;100222.53;;;27.90;39.98
60258;BME280;46115;44.484;11.314;2022-07-23T03:30:56;100232.69;;;27.81;39.97
60258;BME280;46115;44.484;11.314;2022-07-23T03:35:00;100239.09;;;27.44;40.78
60258;BME280;46115;44.484;11.314;2022-07-23T03:39:03;100243.38;;;27.53;40.87
60258;BME280;46115;44.484;11.314;2022-07-23T03:43:05;100248.75;;;27.47;41.29
60258;BME280;46115;44.484;11.314;2022-07-23T03:47:08;100253.41;;;27.38;41.21
60258;BME280;46115;44.484;11.314;2022-07-23T03:51:12;100261.91;;;27.64;40.79
60258;BME280;46115;44.484;11.314;2022-07-23T03:55:15;100257.91;;;27.46;40.91
60258;BME280;46115;44.484;11.314;2022-07-23T03:59:18;100264.84;;;27.33;41.46
60258;BME280;46115;44.484;11.314;2022-07-23T04:03:20;100271.75;;;27.36;41.34
60258;BME280;46115;44.484;11.314;2022-07-23T04:07:24;100264.63;;;27.64;40.67
60258;BME280;46115;44.484;11.314;2022-07-23T04:11:28;100277.00;;;27.52;41.06
60258;BME280;46115;44.484;11.314;2022-07-23T04:15:30;100275.13;;;27.53;40.97
60258;BME280;46115;44.484;11.314;2022-07-23T04:19:33;100273.75;;;27.42;41.25
60258;BME280;46115;44.484;11.314;2022-07-23T04:23:41;100278.41;;;27.63;41.04
60258;BME280;46115;44.484;11.314;2022-07-23T04:27:44;100277.81;;;27.68;40.79
60258;BME280;46115;44.484;11.314;2022-07-23T04:31:46;100275.22;;;27.30;41.61
60258;BME280;46115;44.484;11.314;2022-07-23T04:35:49;100274.84;;;27.33;41.13
60258;BME280;46115;44.484;11.314;2022-07-23T04:39:56;100281.50;;;27.45;41.12
60258;BME280;46115;44.484;11.314;2022-07-23T04:44:00;100262.88;;;27.42;41.17
60258;BME280;46115;44.484;11.314;2022-07-23T04:48:04;100279.59;;;27.75;40.60
60258;BME280;46115;44.484;11.314;2022-07-23T04:52:07;100275.69;;;27.78;40.88
60258;BME280;46115;44.484;11.314;2022-07-23T04:56:11;100285.53;;;28.00;40.42
60258;BME280;46115;44.484;11.314;2022-07-23T05:00:14;100282.53;;;27.95;40.26
60258;BME280;46115;44.484;11.314;2022-07-23T05:04:16;100278.56;;;28.12;40.01
60258;BME280;46115;44.484;11.314;2022-07-23T05:08:19;100272.09;;;28.35;40.06
60258;BME280;46115;44.484;11.314;2022-07-23T05:12:27;100271.59;;;28.24;40.25
60258;BME280;46115;44.484;11.314;2022-07-23T05:16:31;100274.38;;;28.52;40.00
60258;BME280;46115;44.484;11.314;2022-07-23T05:20:38;100272.56;;;28.38;40.71
60258;BME280;46115;44.484;11.314;2022-07-23T05:24:40;100270.25;;;28.63;40.11
60258;BME280;46115;44.484;11.314;2022-07-23T05:28:45;100278.88;;;28.67;40.28
60258;BME280;46115;44.484;11.314;2022-07-23T05:32:48;100266.69;;;28.63;40.16
60258;BME280;46115;44.484;11.314;2022-07-23T05:36:52;100273.06;;;29.32;39.23
60258;BME280;46115;44.484;11.314;2022-07-23T05:40:55;100267.13;;;29.57;38.63
60258;BME280;46115;44.484;11.314;2022-07-23T05:44:59;100272.16;;;29.53;38.91
60258;BME280;46115;44.484;11.314;2022-07-23T05:49:02;100276.47;;;29.89;38.33
60258;BME280;46115;44.484;11.314;2022-07-23T05:53:34;100270.91;;;30.23;37.62
60258;BME280;46115;44.484;11.314;2022-07-23T05:57:44;100267.34;;;30.49;37.36
60258;BME280;46115;44.484;11.314;2022-07-23T06:01:48;100252.56;;;29.84;38.38
60258;BME280;46115;44.484;11.314;2022-07-23T06:05:51;100257.50;;;30.22;37.87
60258;BME280;46115;44.484;11.314;2022-07-23T06:09:54;100261.44;;;30.13;38.43
60258;BME280;46115;44.484;11.314;2022-07-23T06:13:56;100273.22;;;30.53;38.06
60258;BME280;46115;44.484;11.314;2022-07-23T06:18:11;100266.94;;;30.79;38.32
60258;BME280;46115;44.484;11.314;2022-07-23T06:22:14;100265.91;;;30.66;38.86
60258;BME280;46115;44.484;11.314;2022-07-23T06:26:17;100255.38;;;30.50;39.38
60258;BME280;46115;44.484;11.314;2022-07-23T06:30:19;100247.41;;;30.95;38.48
60258;BME280;46115;44.484;11.314;2022-07-23T06:34:23;100254.16;;;30.92;38.38
60258;BME280;46115;44.484;11.314;2022-07-23T06:38:25;100254.94;;;31.19;38.20
60258;BME280;46115;44.484;11.314;2022-07-23T06:42:28;100263.47;;;31.94;37.17
60258;BME280;46115;44.484;11.314;2022-07-23T06:46:33;100258.22;;;31.92;36.87
60258;BME280;46115;44.484;11.314;2022-07-23T06:50:37;100260.97;;;32.80;35.24
60258;BME280;46115;44.484;11.314;2022-07-23T06:54:40;100263.59;;;33.67;33.74
60258;BME280;46115;44.484;11.314;2022-07-23T06:58:43;100263.97;;;32.97;34.52
60258;BME280;46115;44.484;11.314;2022-07-23T07:02:45;100270.72;;;32.95;34.63
60258;BME280;46115;44.484;11.314;2022-07-23T07:06:49;100268.00;;;33.86;33.36
60258;BME280;46115;44.484;11.314;2022-07-23T07:10:52;100271.13;;;33.90;33.26
60258;BME280;46115;44.484;11.314;2022-07-23T07:14:54;100274.44;;;34.22;32.56
60258;BME280;46115;44.484;11.314;2022-07-23T07:18:57;100282.50;;;35.63;30.52
60258;BME280;46115;44.484;11.314;2022-07-23T07:23:01;100279.69;;;36.15;29.56
60258;BME280;46115;44.484;11.314;2022-07-23T07:27:04;100287.53;;;36.23;29.34
60258;BME280;46115;44.484;11.314;2022-07-23T07:31:06;100291.00;;;36.98;28.12
60258;BME280;46115;44.484;11.314;2022-07-23T07:35:09;100289.53;;;36.90;28.21
60258;BME280;46115;44.484;11.314;2022-07-23T07:39:13;100290.00;;;37.42;27.59
60258;BME280;46115;44.484;11.314;2022-07-23T07:43:15;100279.50;;;37.39;26.97
60258;BME280;46115;44.484;11.314;2022-07-23T07:47:18;100297.66;;;38.28;26.28
60258;BME280;46115;44.484;11.314;2022-07-23T07:51:20;100298.22;;;37.37;27.16
60258;BME280;46115;44.484;11.314;2022-07-23T07:55:24;100277.19;;;38.88;25.56
60258;BME280;46115;44.484;11.314;2022-07-23T07:59:28;100293.34;;;39.53;24.55
60258;BME280;46115;44.484;11.314;2022-07-23T08:03:30;100299.63;;;40.21;22.97
60258;BME280;46115;44.484;11.314;2022-07-23T08:07:33;100308.00;;;40.88;22.34
60258;BME280;46115;44.484;11.314;2022-07-23T08:11:37;100301.28;;;41.39;21.87
60258;BME280;46115;44.484;11.314;2022-07-23T08:15:39;100306.81;;;42.09;21.11
60258;BME280;46115;44.484;11.314;2022-07-23T08:19:42;100302.66;;;42.01;20.75
60258;BME280;46115;44.484;11.314;2022-07-23T08:23:44;100300.81;;;40.97;21.74
60258;BME280;46115;44.484;11.314;2022-07-23T08:27:48;100314.75;;;42.21;20.44
60258;BME280;46115;44.484;11.314;2022-07-23T08:31:51;100315.13;;;42.82;19.33
60258;BME280;46115;44.484;11.314;2022-07-23T08:35:53;100325.03;;;44.32;17.09
60258;BME280;46115;44.484;11.314;2022-07-23T08:39:57;100329.06;;;43.59;17.40
60258;BME280;46115;44.484;11.314;2022-07-23T08:44:01;100327.97;;;44.73;16.04
60258;BME280;46115;44.484;11.314;2022-07-23T08:48:06;100332.75;;;45.19;15.29
60258;BME280;46115;44.484;11.314;2022-07-23T08:52:09;100331.34;;;45.90;14.92
60258;BME280;46115;44.484;11.314;2022-07-23T08:56:12;100339.53;;;48.08;12.56
60258;BME280;46115;44.484;11.314;2022-07-23T09:00:17;100314.31;;;47.03;13.11
60258;BME280;46115;44.484;11.314;2022-07-23T09:04:20;100339.59;;;49.54;10.91
60258;BME280;46115;44.484;11.314;2022-07-23T09:08:23;100351.66;;;51.70;9.24
60258;BME280;46115;44.484;11.314;2022-07-23T09:12:26;100361.28;;;53.37;7.76
60258;BME280;46115;44.484;11.314;2022-07-23T09:16:31;100349.78;;;52.82;8.10
60258;BME280;46115;44.484;11.314;2022-07-23T09:20:34;100321.34;;;45.48;13.00
60258;BME280;46115;44.484;11.314;2022-07-23T09:24:36;100312.66;;;43.57;15.49
60258;BME280;46115;44.484;11.314;2022-07-23T09:28:51;100315.53;;;43.00;14.55
60258;BME280;46115;44.484;11.314;2022-07-23T09:33:14;100305.44;;;43.09;14.83
60258;BME280;46115;44.484;11.314;2022-07-23T09:37:18;100298.13;;;42.89;14.58
60258;BME280;46115;44.484;11.314;2022-07-23T09:41:21;100292.91;;;42.48;15.08
60258;BME280;46115;44.484;11.314;2022-07-23T09:45:25;100288.06;;;42.25;14.77
60258;BME280;46115;44.484;11.314;2022-07-23T09:49:28;100281.72;;;41.75;15.18
60258;BME280;46115;44.484;11.314;2022-07-23T09:53:31;100276.69;;;40.87;16.58
60258;BME280;46115;44.484;11.314;2022-07-23T09:57:34;100264.78;;;40.46;16.50
60258;BME280;46115;44.484;11.314;2022-07-23T10:01:37;100269.59;;;41.51;15.78
60258;BME280;46115;44.484;11.314;2022-07-23T10:05:41;100254.78;;;40.91;16.43
60258;BME280;46115;44.484;11.314;2022-07-23T10:10:04;100248.41;;;40.24;17.08
60258;BME280;46115;44.484;11.314;2022-07-23T10:14:37;100249.81;;;40.27;17.10
60258;BME280;46115;44.484;11.314;2022-07-23T10:18:43;100241.78;;;40.71;17.54
60258;BME280;46115;44.484;11.314;2022-07-23T10:23:00;100239.03;;;40.40;16.92
60258;BME280;46115;44.484;11.314;2022-07-23T10:27:17;100245.66;;;40.09;17.50
60258;BME280;46115;44.484;11.314;2022-07-23T10:31:33;100227.25;;;39.05;18.53
60258;BME280;46115;44.484;11.314;2022-07-23T10:35:40;100230.06;;;39.72;18.23
60258;BME280;46115;44.484;11.314;2022-07-23T10:39:47;100228.25;;;39.30;19.14
60258;BME280;46115;44.484;11.314;2022-07-23T10:44:05;100217.34;;;39.09;18.99
60258;BME280;46115;44.484;11.314;2022-07-23T10:48:13;100216.06;;;38.47;19.60
60258;BME280;46115;44.484;11.314;2022-07-23T10:52:21;100220.06;;;37.97;20.37
60258;BME280;46115;44.484;11.314;2022-07-23T10:57:04;100188.44;;;38.42;20.28
60258;BME280;46115;44.484;11.314;2022-07-23T11:01:32;100220.22;;;39.29;20.35
60258;BME280;46115;44.484;11.314;2022-07-23T11:05:45;100212.28;;;38.53;20.58
60258;BME280;46115;44.484;11.314;2022-07-23T11:09:47;100208.34;;;38.44;20.58
60258;BME280;46115;44.484;11.314;2022-07-23T11:13:51;100207.13;;;38.62;20.04
60258;BME280;46115;44.484;11.314;2022-07-23T11:17:59;100196.16;;;38.77;20.40
60258;BME280;46115;44.484;11.314;2022-07-23T11:22:02;100191.94;;;38.64;20.16
60258;BME280;46115;44.484;11.314;2022-07-23T11:26:04;100185.25;;;37.91;20.68
60258;BME280;46115;44.484;11.314;2022-07-23T11:30:10;100179.72;;;38.18;20.65
60258;BME280;46115;44.484;11.314;2022-07-23T11:34:29;100173.81;;;38.42;20.80
60258;BME280;46115;44.484;11.314;2022-07-23T11:38:32;100181.06;;;38.53;20.27
60258;BME280;46115;44.484;11.314;2022-07-23T11:42:37;100166.22;;;38.22;20.55
60258;BME280;46115;44.484;11.314;2022-07-23T11:46:54;100162.97;;;38.30;20.97
60258;BME280;46115;44.484;11.314;2022-07-23T11:50:58;100158.56;;;38.34;21.49
60258;BME280;46115;44.484;11.314;2022-07-23T11:55:02;100156.25;;;37.62;21.85
60258;BME280;46115;44.484;11.314;2022-07-23T11:59:05;100144.91;;;37.58;23.16
60258;BME280;46115;44.484;11.314;2022-07-23T12:03:09;100138.63;;;38.22;21.11
60258;BME280;46115;44.484;11.314;2022-07-23T12:07:29;100140.56;;;37.40;22.17
60258;BME280;46115;44.484;11.314;2022-07-23T12:11:32;100143.53;;;37.61;21.57
60258;BME280;46115;44.484;11.314;2022-07-23T12:15:36;100127.22;;;36.67;22.40
60258;BME280;46115;44.484;11.314;2022-07-23T12:19:41;100126.22;;;37.65;21.85
60258;BME280;46115;44.484;11.314;2022-07-23T12:23:48;100113.56;;;37.69;21.72
60258;BME280;46115;44.484;11.314;2022-07-23T12:28:03;100124.88;;;37.19;22.21
60258;BME280;46115;44.484;11.314;2022-07-23T12:32:20;100128.50;;;37.73;21.95
60258;BME280;46115;44.484;11.314;2022-07-23T12:36:36;100113.84;;;38.00;21.95
60258;BME280;46115;44.484;11.314;2022-07-23T12:40:43;100098.59;;;37.87;21.62
60258;BME280;46115;44.484;11.314;2022-07-23T12:45:05;100115.13;;;38.19;21.37
60258;BME280;46115;44.484;11.314;2022-07-23T12:49:07;100095.69;;;37.72;21.54
60258;BME280;46115;44.484;11.314;2022-07-23T12:53:13;100098.53;;;37.55;22.04
60258;BME280;46115;44.484;11.314;2022-07-23T12:57:16;100099.56;;;37.00;22.32
60258;BME280;46115;44.484;11.314;2022-07-23T13:01:24;100088.75;;;36.94;22.22
60258;BME280;46115;44.484;11.314;2022-07-23T13:05:27;100089.56;;;37.16;22.35
60258;BME280;46115;44.484;11.314;2022-07-23T13:09:33;100077.94;;;37.63;22.87
60258;BME280;46115;44.484;11.314;2022-07-23T13:13:35;100068.25;;;37.87;22.13
60258;BME280;46115;44.484;11.314;2022-07-23T13:17:38;100072.84;;;37.82;21.67
60258;BME280;46115;44.484;11.314;2022-07-23T13:21:41;100069.88;;;37.83;21.59
60258;BME280;46115;44.484;11.314;2022-07-23T13:25:46;100066.28;;;37.56;22.36
60258;BME280;46115;44.484;11.314;2022-07-23T13:29:48;100061.66;;;37.93;21.81
60258;BME280;46115;44.484;11.314;2022-07-23T13:33:50;100068.50;;;37.86;21.90
60258;BME280;46115;44.484;11.314;2022-07-23T13:37:53;100060.56;;;37.94;21.73
60258;BME280;46115;44.484;11.314;2022-07-23T13:41:57;100063.78;;;37.54;22.26
60258;BME280;46115;44.484;11.314;2022-07-23T13:46:00;100056.72;;;37.68;22.55
60258;BME280;46115;44.484;11.314;2022-07-23T13:50:03;100050.06;;;37.91;22.23
60258;BME280;46115;44.484;11.314;2022-07-23T13:54:06;100046.78;;;37.99;22.47
60258;BME280;46115;44.484;11.314;2022-07-23T13:58:10;100043.16;;;37.89;22.03
60258;BME280;46115;44.484;11.314;2022-07-23T14:02:15;100044.88;;;38.00;22.39
60258;BME280;46115;44.484;11.314;2022-07-23T14:06:19;100043.81;;;38.06;22.39
60258;BME280;46115;44.484;11.314;2022-07-23T14:10:22;100043.47;;;37.97;21.92
60258;BME280;46115;44.484;11.314;2022-07-23T14:14:26;100042.34;;;37.93;21.75
60258;BME280;46115;44.484;11.314;2022-07-23T14:18:29;100039.84;;;37.92;22.46
60258;BME280;46115;44.484;11.314;2022-07-23T14:22:32;99994.09;;;37.64;22.24
60258;BME280;46115;44.484;11.314;2022-07-23T14:26:34;100030.28;;;38.09;22.74
60258;BME280;46115;44.484;11.314;2022-07-23T14:30:38;100023.63;;;38.00;22.38
60258;BME280;46115;44.484;11.314;2022-07-23T14:34:41;100027.44;;;37.94;21.91
60258;BME280;46115;44.484;11.314;2022-07-23T14:38:43;100011.44;;;37.91;22.21
60258;BME280;46115;44.484;11.314;2022-07-23T14:42:46;100022.72;;;37.85;22.33
60258;BME280;46115;44.484;11.314;2022-07-23T14:46:50;100023.03;;;37.93;22.57
60258;BME280;46115;44.484;11.314;2022-07-23T14:50:52;100019.13;;;37.52;22.31
60258;BME280;46115;44.484;11.314;2022-07-23T14:54:55;100020.03;;;37.63;22.70
60258;BME280;46115;44.484;11.314;2022-07-23T14:58:57;100020.69;;;37.75;22.70
60258;BME280;46115;44.484;11.314;2022-07-23T15:03:01;100012.28;;;37.60;22.47
60258;BME280;46115;44.484;11.314;2022-07-23T15:07:04;99984.41;;;37.24;23.13
60258;BME280;46115;44.484;11.314;2022-07-23T15:11:07;100003.78;;;37.66;22.56
60258;BME280;46115;44.484;11.314;2022-07-23T15:15:10;100005.09;;;37.59;22.45
60258;BME280;46115;44.484;11.314;2022-07-23T15:19:14;100000.84;;;37.46;22.90
60258;BME280;46115;44.484;11.314;2022-07-23T15:23:16;100008.66;;;37.54;22.33
60258;BME280;46115;44.484;11.314;2022-07-23T15:27:19;100008.91;;;37.53;22.91
60258;BME280;46115;44.484;11.314;2022-07-23T15:31:22;100006.88;;;37.43;23.75
60258;BME280;46115;44.484;11.314;2022-07-23T15:35:25;100005.66;;;37.61;22.82
60258;BME280;46115;44.484;11.314;2022-07-23T15:39:28;100000.75;;;37.36;23.50
60258;BME280;46115;44.484;11.314;2022-07-23T15:43:33;99992.69;;;37.24;22.16
60258;BME280;46115;44.484;11.314;2022-07-23T15:47:35;100000.00;;;37.13;22.01
60258;BME280;46115;44.484;11.314;2022-07-23T15:51:39;99988.28;;;37.28;22.46
60258;BME280;46115;44.484;11.314;2022-07-23T15:55:42;99982.00;;;37.33;21.76
60258;BME280;46115;44.484;11.314;2022-07-23T15:59:45;99979.44;;;36.99;21.89
60258;BME280;46115;44.484;11.314;2022-07-23T16:03:48;99989.97;;;37.29;22.26
60258;BME280;46115;44.484;11.314;2022-07-23T16:07:52;99980.09;;;37.11;22.49
60258;BME280;46115;44.484;11.314;2022-07-23T16:11:54;99982.72;;;37.23;22.17
60258;BME280;46115;44.484;11.314;2022-07-23T16:15:57;99978.13;;;37.07;22.72
60258;BME280;46115;44.484;11.314;2022-07-23T16:20:00;99973.00;;;36.89;23.00
60258;BME280;46115;44.484;11.314;2022-07-23T16:24:04;99983.97;;;36.83;23.29
60258;BME280;46115;44.484;11.314;2022-07-23T16:28:07;99975.81;;;36.72;23.50
60258;BME280;46115;44.484;11.314;2022-07-23T16:32:10;99982.25;;;36.77;23.91
60258;BME280;46115;44.484;11.314;2022-07-23T16:36:12;99989.94;;;36.53;24.72
60258;BME280;46115;44.484;11.314;2022-07-23T16:40:16;99992.13;;;36.51;24.26
60258;BME280;46115;44.484;11.314;2022-07-23T16:44:18;99991.22;;;36.46;24.54
60258;BME280;46115;44.484;11.314;2022-07-23T16:48:21;99990.09;;;36.25;25.28
60258;BME280;46115;44.484;11.314;2022-07-23T16:52:23;99988.38;;;36.19;25.24
60258;BME280;46115;44.484;11.314;2022-07-23T16:56:27;99996.97;;;36.06;25.16
60258;BME280;46115;44.484;11.314;2022-07-23T17:00:32;99998.94;;;35.88;25.81
60258;BME280;46115;44.484;11.314;2022-07-23T17:04:34;99988.00;;;35.93;25.87
60258;BME280;46115;44.484;11.314;2022-07-23T17:08:37;99998.09;;;35.88;25.87
60258;BME280;46115;44.484;11.314;2022-07-23T17:12:41;99997.59;;;35.74;25.96
60258;BME280;46115;44.484;11.314;2022-07-23T17:16:43;99998.31;;;35.70;25.94
60258;BME280;46115;44.484;11.314;2022-07-23T17:20:46;99998.56;;;35.68;26.08
60258;BME280;46115;44.484;11.314;2022-07-23T17:24:48;99994.44;;;35.49;26.22
60258;BME280;46115;44.484;11.314;2022-07-23T17:28:52;99995.00;;;35.51;26.37
60258;BME280;46115;44.484;11.314;2022-07-23T17:32:55;99998.09;;;35.54;26.63
60258;BME280;46115;44.484;11.314;2022-07-23T17:36:58;100000.09;;;35.42;26.77
60258;BME280;46115;44.484;11.314;2022-07-23T17:41:02;99999.28;;;35.42;26.58
60258;BME280;46115;44.484;11.314;2022-07-23T17:45:07;99998.22;;;35.31;26.79
60258;BME280;46115;44.484;11.314;2022-07-23T17:49:10;100003.28;;;35.22;27.06
60258;BME280;46115;44.484;11.314;2022-07-23T17:53:13;100008.72;;;35.34;27.42
60258;BME280;46115;44.484;11.314;2022-07-23T17:57:16;100006.38;;;35.26;27.75
60258;BME280;46115;44.484;11.314;2022-07-23T18:01:20;100018.25;;;35.15;26.70
60258;BME280;46115;44.484;11.314;2022-07-23T18:05:23;100018.78;;;35.00;26.88
60258;BME280;46115;44.484;11.314;2022-07-23T18:09:26;100025.63;;;34.97;27.17
60258;BME280;46115;44.484;11.314;2022-07-23T18:13:28;100031.84;;;34.93;26.98
60258;BME280;46115;44.484;11.314;2022-07-23T18:17:33;100034.28;;;34.66;28.03
60258;BME280;46115;44.484;11.314;2022-07-23T18:21:36;100040.91;;;34.53;27.84
60258;BME280;46115;44.484;11.314;2022-07-23T18:25:39;100042.94;;;34.46;27.87
60258;BME280;46115;44.484;11.314;2022-07-23T18:29:41;100043.06;;;34.51;34.03
60258;BME280;46115;44.484;11.314;2022-07-23T18:33:45;100053.09;;;34.34;32.96
60258;BME280;46115;44.484;11.314;2022-07-23T18:37:48;100058.56;;;34.34;29.75
60258;BME280;46115;44.484;11.314;2022-07-23T18:41:51;100063.47;;;34.44;28.58
60258;BME280;46115;44.484;11.314;2022-07-23T18:45:53;100062.75;;;34.13;31.86
60258;BME280;46115;44.484;11.314;2022-07-23T18:49:59;100057.59;;;33.93;32.00
60258;BME280;46115;44.484;11.314;2022-07-23T18:54:02;100077.19;;;34.08;31.01
60258;BME280;46115;44.484;11.314;2022-07-23T18:58:04;100080.97;;;33.96;31.21
60258;BME280;46115;44.484;11.314;2022-07-23T19:02:07;100083.34;;;33.92;30.38
60258;BME280;46115;44.484;11.314;2022-07-23T19:06:11;100087.72;;;33.82;29.72
60258;BME280;46115;44.484;11.314;2022-07-23T19:10:14;100086.06;;;33.80;29.87
60258;BME280;46115;44.484;11.314;2022-07-23T19:14:17;100110.53;;;33.94;30.01
60258;BME280;46115;44.484;11.314;2022-07-23T19:18:19;100113.34;;;33.75;28.68
60258;BME280;46115;44.484;11.314;2022-07-23T19:22:23;100120.84;;;33.68;28.80
60258;BME280;46115;44.484;11.314;2022-07-23T19:26:27;100132.41;;;33.70;27.36
60258;BME280;46115;44.484;11.314;2022-07-23T19:30:30;100140.75;;;33.75;26.23
60258;BME280;46115;44.484;11.314;2022-07-23T19:34:33;100135.69;;;33.61;26.53
60258;BME280;46115;44.484;11.314;2022-07-23T19:38:37;100149.28;;;33.56;26.96
60258;BME280;46115;44.484;11.314;2022-07-23T22:06:09;100210.06;;;30.82;33.99
60258;BME280;46115;44.484;11.314;2022-07-23T22:10:12;100212.78;;;30.89;34.29
60258;BME280;46115;44.484;11.314;2022-07-23T22:14:14;100217.81;;;30.85;34.43
60258;BME280;46115;44.484;11.314;2022-07-23T22:18:17;100211.31;;;30.80;34.69
60258;BME280;46115;44.484;11.314;2022-07-23T22:22:21;100212.38;;;30.79;34.99
60258;BME280;46115;44.484;11.314;2022-07-23T22:26:23;100212.84;;;30.62;35.38
60258;BME280;46115;44.484;11.314;2022-07-23T22:30:26;100208.19;;;30.56;35.54
60258;BME280;46115;44.484;11.314;2022-07-23T22:34:29;100206.31;;;30.57;35.89
60258;BME280;46115;44.484;11.314;2022-07-23T22:38:32;100217.66;;;30.54;35.89
60258;BME280;46115;44.484;11.314;2022-07-23T22:42:35;100206.91;;;30.52;35.91
60258;BME280;46115;44.484;11.314;2022-07-23T22:46:37;100211.34;;;30.73;35.60
60258;BME280;46115;44.484;11.314;2022-07-23T22:50:40;100209.47;;;30.34;36.26
60258;BME280;46115;44.484;11.314;2022-07-23T22:54:43;100222.25;;;30.47;36.11
60258;BME280;46115;44.484;11.314;2022-07-23T22:58:46;100222.88;;;30.35;36.56
60258;BME280;46115;44.484;11.314;2022-07-23T23:02:48;100219.53;;;30.27;36.55
60258;BME280;46115;44.484;11.314;2022-07-23T23:06:51;100222.47;;;30.19;36.56
60258;BME280;46115;44.484;11.314;2022-07-23T23:10:54;100226.66;;;30.21;36.65
60258;BME280;46115;44.484;11.314;2022-07-23T23:14:57;100219.50;;;30.14;36.80
60258;BME280;46115;44.484;11.314;2022-07-23T23:18:59;100229.56;;;30.13;36.52
60258;BME280;46115;44.484;11.314;2022-07-23T23:23:02;100231.28;;;30.27;36.38
60258;BME280;46115;44.484;11.314;2022-07-23T23:27:05;100225.75;;;29.88;37.13